sensor_id;sensor_type;location;lat;lon;timestamp;temperature;humidity
728;DHT22;347;48.780;9.158;2022-12-07T00:01:20;7.80;37.30
728;DHT22;347;48.780;9.158;2022-12-07T00:03:48;7.80;36.90
728;DHT22;347;48.780;9.158;2022-12-07T00:06:15;7.80;37.50
728;DHT22;347;48.780;9.158;2022-12-07T00:08:42;7.90;37.00
728;DHT22;347;48.780;9.158;2022-12-07T00:11:13;8.10;36.20
728;DHT22;347;48.780;9.158;2022-12-07T00:13:40;8.20;35.70
728;DHT22;347;48.780;9.158;2022-12-07T00:16:11;8.20;35.00
728;DHT22;347;48.780;9.158;2022-12-07T00:18:38;8.20;35.00
728;DHT22;347;48.780;9.158;2022-12-07T00:21:05;8.30;35.10
728;DHT22;347;48.780;9.158;2022-12-07T00:23:31;8.00;35.00
728;DHT22;347;48.780;9.158;2022-12-07T00:26:03;7.80;36.70
728;DHT22;347;48.780;9.158;2022-12-07T00:28:29;7.80;36.50
728;DHT22;347;48.780;9.158;2022-12-07T00:31:01;7.60;37.00
728;DHT22;347;48.780;9.158;2022-12-07T00:33:26;7.80;36.70
728;DHT22;347;48.780;9.158;2022-12-07T00:35:58;7.70;36.80
728;DHT22;347;48.780;9.158;2022-12-07T00:38:24;7.50;36.70
728;DHT22;347;48.780;9.158;2022-12-07T00:41:01;7.60;36.70
728;DHT22;347;48.780;9.158;2022-12-07T00:43:27;7.70;36.30
728;DHT22;347;48.780;9.158;2022-12-07T00:45:53;7.90;35.40
728;DHT22;347;48.780;9.158;2022-12-07T00:48:20;8.00;35.00
728;DHT22;347;48.780;9.158;2022-12-07T00:50:46;8.00;34.50
728;DHT22;347;48.780;9.158;2022-12-07T00:53:11;8.00;34.10
728;DHT22;347;48.780;9.158;2022-12-07T00:55:37;8.00;34.10
728;DHT22;347;48.780;9.158;2022-12-07T00:58:03;8.10;33.90
728;DHT22;347;48.780;9.158;2022-12-07T01:00:29;8.10;33.70
728;DHT22;347;48.780;9.158;2022-12-07T01:02:55;8.10;32.90
728;DHT22;347;48.780;9.158;2022-12-07T01:05:20;7.90;33.90
728;DHT22;347;48.780;9.158;2022-12-07T01:07:46;7.70;34.50
728;DHT22;347;48.780;9.158;2022-12-07T01:10:12;7.70;34.60
728;DHT22;347;48.780;9.158;2022-12-07T01:12:38;7.70;34.70
728;DHT22;347;48.780;9.158;2022-12-07T01:15:04;7.70;34.90
728;DHT22;347;48.780;9.158;2022-12-07T01:17:29;7.80;34.30
728;DHT22;347;48.780;9.158;2022-12-07T01:19:55;7.90;33.60
728;DHT22;347;48.780;9.158;2022-12-07T01:22:20;8.00;33.40
728;DHT22;347;48.780;9.158;2022-12-07T01:24:46;8.00;32.50
728;DHT22;347;48.780;9.158;2022-12-07T01:27:13;7.80;34.30
728;DHT22;347;48.780;9.158;2022-12-07T01:29:38;7.80;34.00
728;DHT22;347;48.780;9.158;2022-12-07T01:32:04;7.90;33.90
728;DHT22;347;48.780;9.158;2022-12-07T01:34:30;8.00;33.30
728;DHT22;347;48.780;9.158;2022-12-07T01:36:55;8.00;33.00
728;DHT22;347;48.780;9.158;2022-12-07T01:39:21;8.10;32.80
728;DHT22;347;48.780;9.158;2022-12-07T01:41:47;8.10;32.50
728;DHT22;347;48.780;9.158;2022-12-07T01:44:17;8.20;32.80
728;DHT22;347;48.780;9.158;2022-12-07T01:46:48;8.10;32.40
728;DHT22;347;48.780;9.158;2022-12-07T01:51:49;8.10;32.60
728;DHT22;347;48.780;9.158;2022-12-07T01:54:17;8.10;32.60
728;DHT22;347;48.780;9.158;2022-12-07T01:56:50;8.10;32.20
728;DHT22;347;48.780;9.158;2022-12-07T01:59:18;7.90;32.60
728;DHT22;347;48.780;9.158;2022-12-07T02:01:44;7.60;34.40
728;DHT22;347;48.780;9.158;2022-12-07T02:04:10;7.40;35.00
728;DHT22;347;48.780;9.158;2022-12-07T02:06:37;7.50;35.20
728;DHT22;347;48.780;9.158;2022-12-07T02:09:03;7.70;34.40
728;DHT22;347;48.780;9.158;2022-12-07T02:11:29;7.60;34.30
728;DHT22;347;48.780;9.158;2022-12-07T02:13:55;7.10;35.60
728;DHT22;347;48.780;9.158;2022-12-07T02:25:39;6.80;37.60
728;DHT22;347;48.780;9.158;2022-12-07T02:31:31;6.90;37.30
728;DHT22;347;48.780;9.158;2022-12-07T02:34:20;6.90;37.20
728;DHT22;347;48.780;9.158;2022-12-07T02:36:52;7.10;37.20
728;DHT22;347;48.780;9.158;2022-12-07T02:39:44;7.20;36.20
728;DHT22;347;48.780;9.158;2022-12-07T02:42:19;6.90;36.90
728;DHT22;347;48.780;9.158;2022-12-07T02:44:49;6.90;37.50
728;DHT22;347;48.780;9.158;2022-12-07T02:47:17;6.80;37.40
728;DHT22;347;48.780;9.158;2022-12-07T02:49:44;6.70;37.70
728;DHT22;347;48.780;9.158;2022-12-07T02:52:10;6.50;38.60
728;DHT22;347;48.780;9.158;2022-12-07T02:54:35;6.60;39.00
728;DHT22;347;48.780;9.158;2022-12-07T03:10:36;6.30;39.30
728;DHT22;347;48.780;9.158;2022-12-07T03:13:19;6.20;39.40
728;DHT22;347;48.780;9.158;2022-12-07T03:16:02;6.00;39.90
728;DHT22;347;48.780;9.158;2022-12-07T03:18:35;6.00;41.00
728;DHT22;347;48.780;9.158;2022-12-07T03:21:05;6.10;40.60
728;DHT22;347;48.780;9.158;2022-12-07T03:23:34;6.20;39.40
728;DHT22;347;48.780;9.158;2022-12-07T03:26:01;6.20;39.80
728;DHT22;347;48.780;9.158;2022-12-07T03:28:34;6.20;39.40
728;DHT22;347;48.780;9.158;2022-12-07T03:31:02;6.40;39.60
728;DHT22;347;48.780;9.158;2022-12-07T03:33:36;6.20;39.40
728;DHT22;347;48.780;9.158;2022-12-07T03:38:48;5.90;40.60
728;DHT22;347;48.780;9.158;2022-12-07T03:41:21;6.00;40.80
728;DHT22;347;48.780;9.158;2022-12-07T03:43:48;6.00;40.60
728;DHT22;347;48.780;9.158;2022-12-07T03:49:25;5.90;41.20
728;DHT22;347;48.780;9.158;2022-12-07T03:54:26;6.10;39.60
728;DHT22;347;48.780;9.158;2022-12-07T03:56:54;6.00;39.90
728;DHT22;347;48.780;9.158;2022-12-07T03:59:21;5.90;40.20
728;DHT22;347;48.780;9.158;2022-12-07T04:01:56;5.80;40.00
728;DHT22;347;48.780;9.158;2022-12-07T04:04:23;5.70;40.80
728;DHT22;347;48.780;9.158;2022-12-07T04:06:49;5.80;41.10
728;DHT22;347;48.780;9.158;2022-12-07T04:09:15;5.70;41.30
728;DHT22;347;48.780;9.158;2022-12-07T04:11:42;5.70;41.20
728;DHT22;347;48.780;9.158;2022-12-07T04:14:07;5.80;41.00
728;DHT22;347;48.780;9.158;2022-12-07T04:16:50;5.70;40.60
728;DHT22;347;48.780;9.158;2022-12-07T04:19:18;5.60;41.00
728;DHT22;347;48.780;9.158;2022-12-07T04:21:44;5.60;41.50
728;DHT22;347;48.780;9.158;2022-12-07T04:24:12;5.60;42.00
728;DHT22;347;48.780;9.158;2022-12-07T04:26:37;5.60;41.70
728;DHT22;347;48.780;9.158;2022-12-07T04:29:03;5.60;40.80
728;DHT22;347;48.780;9.158;2022-12-07T04:31:28;5.60;40.70
728;DHT22;347;48.780;9.158;2022-12-07T04:33:54;5.50;40.90
728;DHT22;347;48.780;9.158;2022-12-07T04:36:19;5.40;41.70
728;DHT22;347;48.780;9.158;2022-12-07T04:38:46;5.50;41.30
728;DHT22;347;48.780;9.158;2022-12-07T04:41:11;5.40;40.30
728;DHT22;347;48.780;9.158;2022-12-07T04:43:37;5.40;39.10
728;DHT22;347;48.780;9.158;2022-12-07T04:46:03;5.50;38.90
728;DHT22;347;48.780;9.158;2022-12-07T04:48:30;5.60;37.10
728;DHT22;347;48.780;9.158;2022-12-07T04:53:31;5.70;36.20
728;DHT22;347;48.780;9.158;2022-12-07T04:55:56;5.70;36.20
728;DHT22;347;48.780;9.158;2022-12-07T04:58:22;5.80;34.90
728;DHT22;347;48.780;9.158;2022-12-07T05:00:48;5.80;35.20
728;DHT22;347;48.780;9.158;2022-12-07T05:03:13;5.80;34.90
728;DHT22;347;48.780;9.158;2022-12-07T05:05:41;5.90;34.50
728;DHT22;347;48.780;9.158;2022-12-07T05:08:07;6.20;33.50
728;DHT22;347;48.780;9.158;2022-12-07T05:10:32;6.50;32.60
728;DHT22;347;48.780;9.158;2022-12-07T05:12:58;6.90;31.10
728;DHT22;347;48.780;9.158;2022-12-07T05:15:23;7.20;30.20
728;DHT22;347;48.780;9.158;2022-12-07T05:17:49;7.20;28.60
728;DHT22;347;48.780;9.158;2022-12-07T05:20:16;7.20;28.50
728;DHT22;347;48.780;9.158;2022-12-07T05:22:41;7.20;28.20
728;DHT22;347;48.780;9.158;2022-12-07T05:25:07;7.40;27.90
728;DHT22;347;48.780;9.158;2022-12-07T05:27:33;7.50;27.20
728;DHT22;347;48.780;9.158;2022-12-07T05:29:59;7.50;27.20
728;DHT22;347;48.780;9.158;2022-12-07T05:32:25;7.60;27.10
728;DHT22;347;48.780;9.158;2022-12-07T05:34:50;7.70;26.80
728;DHT22;347;48.780;9.158;2022-12-07T05:37:16;7.70;26.90
728;DHT22;347;48.780;9.158;2022-12-07T05:39:41;7.70;26.90
728;DHT22;347;48.780;9.158;2022-12-07T05:42:10;7.80;27.00
728;DHT22;347;48.780;9.158;2022-12-07T05:44:39;7.80;26.90
728;DHT22;347;48.780;9.158;2022-12-07T05:47:05;7.80;26.90
728;DHT22;347;48.780;9.158;2022-12-07T05:49:31;7.90;27.10
728;DHT22;347;48.780;9.158;2022-12-07T05:51:56;7.80;27.50
728;DHT22;347;48.780;9.158;2022-12-07T05:54:22;7.70;27.90
728;DHT22;347;48.780;9.158;2022-12-07T05:56:48;7.80;27.70
728;DHT22;347;48.780;9.158;2022-12-07T05:59:14;7.80;27.60
728;DHT22;347;48.780;9.158;2022-12-07T06:02:00;7.80;28.20
728;DHT22;347;48.780;9.158;2022-12-07T06:04:28;7.90;27.90
728;DHT22;347;48.780;9.158;2022-12-07T06:06:55;7.90;27.60
728;DHT22;347;48.780;9.158;2022-12-07T06:09:22;7.90;27.00
728;DHT22;347;48.780;9.158;2022-12-07T06:11:48;7.70;27.80
728;DHT22;347;48.780;9.158;2022-12-07T06:14:33;7.20;28.50
728;DHT22;347;48.780;9.158;2022-12-07T06:16:59;7.10;28.80
728;DHT22;347;48.780;9.158;2022-12-07T06:19:25;6.80;30.00
728;DHT22;347;48.780;9.158;2022-12-07T06:21:50;6.80;29.90
728;DHT22;347;48.780;9.158;2022-12-07T06:24:17;7.00;30.00
728;DHT22;347;48.780;9.158;2022-12-07T06:26:43;7.20;29.20
728;DHT22;347;48.780;9.158;2022-12-07T06:29:10;7.40;28.90
728;DHT22;347;48.780;9.158;2022-12-07T06:31:36;7.60;28.30
728;DHT22;347;48.780;9.158;2022-12-07T06:34:04;7.70;27.90
728;DHT22;347;48.780;9.158;2022-12-07T06:36:30;7.60;28.00
728;DHT22;347;48.780;9.158;2022-12-07T06:38:56;7.30;28.40
728;DHT22;347;48.780;9.158;2022-12-07T06:41:22;7.10;28.80
728;DHT22;347;48.780;9.158;2022-12-07T06:43:48;6.90;30.00
728;DHT22;347;48.780;9.158;2022-12-07T06:46:15;6.70;29.90
728;DHT22;347;48.780;9.158;2022-12-07T06:48:41;6.40;30.60
728;DHT22;347;48.780;9.158;2022-12-07T06:51:07;6.10;31.30
728;DHT22;347;48.780;9.158;2022-12-07T06:53:34;6.20;31.20
728;DHT22;347;48.780;9.158;2022-12-07T06:56:00;5.90;31.40
728;DHT22;347;48.780;9.158;2022-12-07T06:58:25;5.80;31.40
728;DHT22;347;48.780;9.158;2022-12-07T07:00:51;5.70;32.00
728;DHT22;347;48.780;9.158;2022-12-07T07:03:17;6.00;32.00
728;DHT22;347;48.780;9.158;2022-12-07T07:05:43;6.20;30.00
728;DHT22;347;48.780;9.158;2022-12-07T07:08:09;6.40;29.70
728;DHT22;347;48.780;9.158;2022-12-07T07:10:35;6.60;29.70
728;DHT22;347;48.780;9.158;2022-12-07T07:13:02;6.60;28.30
728;DHT22;347;48.780;9.158;2022-12-07T07:15:27;6.40;29.30
728;DHT22;347;48.780;9.158;2022-12-07T07:17:53;6.20;29.60
728;DHT22;347;48.780;9.158;2022-12-07T07:22:56;6.00;30.70
728;DHT22;347;48.780;9.158;2022-12-07T07:25:21;5.90;31.70
728;DHT22;347;48.780;9.158;2022-12-07T07:27:47;6.10;31.40
728;DHT22;347;48.780;9.158;2022-12-07T07:30:13;6.10;31.00
728;DHT22;347;48.780;9.158;2022-12-07T07:32:39;6.10;30.40
728;DHT22;347;48.780;9.158;2022-12-07T07:35:05;6.10;30.00
728;DHT22;347;48.780;9.158;2022-12-07T07:37:31;6.10;30.60
728;DHT22;347;48.780;9.158;2022-12-07T07:39:56;6.10;30.10
728;DHT22;347;48.780;9.158;2022-12-07T07:42:22;6.30;29.70
728;DHT22;347;48.780;9.158;2022-12-07T07:44:48;6.00;29.40
728;DHT22;347;48.780;9.158;2022-12-07T07:47:13;6.10;29.50
728;DHT22;347;48.780;9.158;2022-12-07T07:49:39;6.10;29.50
728;DHT22;347;48.780;9.158;2022-12-07T07:52:06;6.20;29.60
728;DHT22;347;48.780;9.158;2022-12-07T07:54:32;6.20;29.50
728;DHT22;347;48.780;9.158;2022-12-07T07:56:57;6.10;29.50
728;DHT22;347;48.780;9.158;2022-12-07T07:59:23;6.00;30.00
728;DHT22;347;48.780;9.158;2022-12-07T08:01:50;5.80;30.00
728;DHT22;347;48.780;9.158;2022-12-07T08:04:15;5.80;30.00
728;DHT22;347;48.780;9.158;2022-12-07T08:06:41;5.70;30.30
728;DHT22;347;48.780;9.158;2022-12-07T08:09:07;5.70;30.50
728;DHT22;347;48.780;9.158;2022-12-07T08:11:34;5.80;30.20
728;DHT22;347;48.780;9.158;2022-12-07T08:14:00;5.90;30.10
728;DHT22;347;48.780;9.158;2022-12-07T08:16:25;6.20;29.80
728;DHT22;347;48.780;9.158;2022-12-07T08:18:51;6.20;29.60
728;DHT22;347;48.780;9.158;2022-12-07T08:21:17;6.00;29.40
728;DHT22;347;48.780;9.158;2022-12-07T08:23:43;5.90;29.80
728;DHT22;347;48.780;9.158;2022-12-07T08:26:11;5.80;30.50
728;DHT22;347;48.780;9.158;2022-12-07T08:28:38;6.00;30.20
728;DHT22;347;48.780;9.158;2022-12-07T08:31:07;6.20;29.60
728;DHT22;347;48.780;9.158;2022-12-07T08:33:33;6.20;29.40
728;DHT22;347;48.780;9.158;2022-12-07T08:36:08;6.30;29.30
728;DHT22;347;48.780;9.158;2022-12-07T08:38:34;6.10;29.40
728;DHT22;347;48.780;9.158;2022-12-07T08:41:00;6.00;29.40
728;DHT22;347;48.780;9.158;2022-12-07T08:43:26;5.90;29.40
728;DHT22;347;48.780;9.158;2022-12-07T08:48:30;5.90;29.40
728;DHT22;347;48.780;9.158;2022-12-07T08:50:57;6.00;29.40
728;DHT22;347;48.780;9.158;2022-12-07T08:53:23;6.10;29.10
728;DHT22;347;48.780;9.158;2022-12-07T08:55:49;6.30;29.20
728;DHT22;347;48.780;9.158;2022-12-07T08:58:15;6.40;28.50
728;DHT22;347;48.780;9.158;2022-12-07T09:00:40;6.40;28.20
728;DHT22;347;48.780;9.158;2022-12-07T09:03:07;6.40;28.00
728;DHT22;347;48.780;9.158;2022-12-07T09:05:33;6.50;28.30
728;DHT22;347;48.780;9.158;2022-12-07T09:08:01;6.70;27.30
728;DHT22;347;48.780;9.158;2022-12-07T09:10:30;6.90;27.10
728;DHT22;347;48.780;9.158;2022-12-07T09:12:56;7.00;27.10
728;DHT22;347;48.780;9.158;2022-12-07T09:15:29;6.90;26.90
728;DHT22;347;48.780;9.158;2022-12-07T09:17:55;6.70;27.40
728;DHT22;347;48.780;9.158;2022-12-07T09:20:21;6.70;27.30
728;DHT22;347;48.780;9.158;2022-12-07T09:22:47;6.40;28.00
728;DHT22;347;48.780;9.158;2022-12-07T09:25:13;6.40;28.20
728;DHT22;347;48.780;9.158;2022-12-07T09:27:38;6.50;28.20
728;DHT22;347;48.780;9.158;2022-12-07T09:30:05;6.50;28.40
728;DHT22;347;48.780;9.158;2022-12-07T09:32:31;6.40;28.50
728;DHT22;347;48.780;9.158;2022-12-07T09:34:57;6.40;28.50
728;DHT22;347;48.780;9.158;2022-12-07T09:37:22;6.30;28.90
728;DHT22;347;48.780;9.158;2022-12-07T09:39:48;6.40;28.90
728;DHT22;347;48.780;9.158;2022-12-07T09:42:36;6.30;29.40
728;DHT22;347;48.780;9.158;2022-12-07T09:45:05;6.50;28.80
728;DHT22;347;48.780;9.158;2022-12-07T09:47:33;6.50;28.70
728;DHT22;347;48.780;9.158;2022-12-07T09:50:12;6.40;28.90
728;DHT22;347;48.780;9.158;2022-12-07T09:52:38;6.60;29.80
728;DHT22;347;48.780;9.158;2022-12-07T09:55:10;6.90;28.50
728;DHT22;347;48.780;9.158;2022-12-07T09:57:36;7.00;28.10
728;DHT22;347;48.780;9.158;2022-12-07T10:00:10;7.10;27.80
728;DHT22;347;48.780;9.158;2022-12-07T10:02:42;7.00;27.70
728;DHT22;347;48.780;9.158;2022-12-07T10:05:14;7.10;27.70
728;DHT22;347;48.780;9.158;2022-12-07T10:07:41;7.30;27.30
728;DHT22;347;48.780;9.158;2022-12-07T10:10:15;7.30;27.10
728;DHT22;347;48.780;9.158;2022-12-07T10:12:58;7.20;27.80
728;DHT22;347;48.780;9.158;2022-12-07T10:18:38;7.30;27.40
728;DHT22;347;48.780;9.158;2022-12-07T10:21:10;7.20;27.80
728;DHT22;347;48.780;9.158;2022-12-07T10:23:38;7.00;28.80
728;DHT22;347;48.780;9.158;2022-12-07T10:26:20;7.20;28.60
728;DHT22;347;48.780;9.158;2022-12-07T10:28:50;7.00;28.70
728;DHT22;347;48.780;9.158;2022-12-07T10:31:21;7.10;29.00
728;DHT22;347;48.780;9.158;2022-12-07T10:33:54;7.00;29.00
728;DHT22;347;48.780;9.158;2022-12-07T10:39:04;7.10;29.10
728;DHT22;347;48.780;9.158;2022-12-07T10:41:36;7.20;29.10
728;DHT22;347;48.780;9.158;2022-12-07T10:44:02;7.30;29.00
728;DHT22;347;48.780;9.158;2022-12-07T10:46:57;7.10;28.90
728;DHT22;347;48.780;9.158;2022-12-07T10:52:36;6.90;30.00
728;DHT22;347;48.780;9.158;2022-12-07T11:06:36;7.20;29.70
728;DHT22;347;48.780;9.158;2022-12-07T11:12:08;7.40;29.50
728;DHT22;347;48.780;9.158;2022-12-07T11:17:26;7.40;29.40
728;DHT22;347;48.780;9.158;2022-12-07T11:20:12;7.40;29.60
728;DHT22;347;48.780;9.158;2022-12-07T11:23:18;7.80;28.60
728;DHT22;347;48.780;9.158;2022-12-07T11:26:03;7.60;28.80
728;DHT22;347;48.780;9.158;2022-12-07T11:28:52;7.40;29.20
728;DHT22;347;48.780;9.158;2022-12-07T11:31:56;7.40;29.60
728;DHT22;347;48.780;9.158;2022-12-07T11:34:50;7.40;29.80
728;DHT22;347;48.780;9.158;2022-12-07T11:37:41;7.60;29.30
728;DHT22;347;48.780;9.158;2022-12-07T11:43:09;7.90;28.70
728;DHT22;347;48.780;9.158;2022-12-07T11:48:46;8.40;27.90
728;DHT22;347;48.780;9.158;2022-12-07T11:51:26;8.60;27.50
728;DHT22;347;48.780;9.158;2022-12-07T11:54:28;8.70;27.10
728;DHT22;347;48.780;9.158;2022-12-07T11:56:59;8.60;27.60
728;DHT22;347;48.780;9.158;2022-12-07T11:59:52;8.70;27.80
728;DHT22;347;48.780;9.158;2022-12-07T12:02:28;8.80;27.90
728;DHT22;347;48.780;9.158;2022-12-07T12:05:19;8.80;28.60
728;DHT22;347;48.780;9.158;2022-12-07T12:07:58;8.70;28.30
728;DHT22;347;48.780;9.158;2022-12-07T12:10:55;8.60;28.50
728;DHT22;347;48.780;9.158;2022-12-07T12:13:43;8.60;28.70
728;DHT22;347;48.780;9.158;2022-12-07T12:22:04;8.40;29.90
728;DHT22;347;48.780;9.158;2022-12-07T12:24:33;8.50;29.60
728;DHT22;347;48.780;9.158;2022-12-07T12:27:38;8.50;29.30
728;DHT22;347;48.780;9.158;2022-12-07T12:30:32;8.50;29.30
728;DHT22;347;48.780;9.158;2022-12-07T12:33:20;8.50;29.40
728;DHT22;347;48.780;9.158;2022-12-07T12:39:10;8.40;29.70
728;DHT22;347;48.780;9.158;2022-12-07T12:47:38;8.20;29.60
728;DHT22;347;48.780;9.158;2022-12-07T12:50:26;8.10;29.20
728;DHT22;347;48.780;9.158;2022-12-07T12:53:19;8.20;29.40
728;DHT22;347;48.780;9.158;2022-12-07T12:56:30;8.20;29.20
728;DHT22;347;48.780;9.158;2022-12-07T12:59:32;8.30;28.80
728;DHT22;347;48.780;9.158;2022-12-07T13:02:38;8.30;28.80
728;DHT22;347;48.780;9.158;2022-12-07T13:12:56;8.40;28.90
728;DHT22;347;48.780;9.158;2022-12-07T13:15:35;8.40;28.60
728;DHT22;347;48.780;9.158;2022-12-07T13:18:21;8.40;28.50
728;DHT22;347;48.780;9.158;2022-12-07T13:21:41;8.50;28.50
728;DHT22;347;48.780;9.158;2022-12-07T13:34:30;8.20;28.30
728;DHT22;347;48.780;9.158;2022-12-07T13:36:57;8.20;28.10
728;DHT22;347;48.780;9.158;2022-12-07T13:39:28;8.30;27.90
728;DHT22;347;48.780;9.158;2022-12-07T13:42:15;8.20;28.20
728;DHT22;347;48.780;9.158;2022-12-07T13:44:44;7.90;29.00
728;DHT22;347;48.780;9.158;2022-12-07T13:47:34;7.60;29.60
728;DHT22;347;48.780;9.158;2022-12-07T13:50:39;7.60;29.60
728;DHT22;347;48.780;9.158;2022-12-07T13:53:12;7.80;29.50
728;DHT22;347;48.780;9.158;2022-12-07T13:55:45;8.00;28.80
728;DHT22;347;48.780;9.158;2022-12-07T13:58:14;8.20;28.10
728;DHT22;347;48.780;9.158;2022-12-07T14:00:43;8.20;28.10
728;DHT22;347;48.780;9.158;2022-12-07T14:05:40;8.30;28.80
728;DHT22;347;48.780;9.158;2022-12-07T14:10:52;8.50;28.00
728;DHT22;347;48.780;9.158;2022-12-07T14:16:01;8.80;27.60
728;DHT22;347;48.780;9.158;2022-12-07T14:18:30;8.80;27.00
728;DHT22;347;48.780;9.158;2022-12-07T14:23:39;8.80;26.60
728;DHT22;347;48.780;9.158;2022-12-07T14:28:37;8.80;26.70
728;DHT22;347;48.780;9.158;2022-12-07T14:31:15;8.80;26.80
728;DHT22;347;48.780;9.158;2022-12-07T14:33:42;8.80;26.80
728;DHT22;347;48.780;9.158;2022-12-07T14:36:09;8.60;26.80
728;DHT22;347;48.780;9.158;2022-12-07T14:38:41;8.60;27.60
728;DHT22;347;48.780;9.158;2022-12-07T14:41:13;8.70;27.20
728;DHT22;347;48.780;9.158;2022-12-07T14:44:01;8.80;27.00
728;DHT22;347;48.780;9.158;2022-12-07T14:46:37;8.90;26.80
728;DHT22;347;48.780;9.158;2022-12-07T14:49:02;8.90;26.80
728;DHT22;347;48.780;9.158;2022-12-07T14:51:53;8.90;26.70
728;DHT22;347;48.780;9.158;2022-12-07T14:54:33;8.90;26.70
728;DHT22;347;48.780;9.158;2022-12-07T14:57:13;8.90;26.70
728;DHT22;347;48.780;9.158;2022-12-07T14:59:39;9.00;26.80
728;DHT22;347;48.780;9.158;2022-12-07T15:02:13;9.00;26.80
728;DHT22;347;48.780;9.158;2022-12-07T15:04:47;9.00;26.60
728;DHT22;347;48.780;9.158;2022-12-07T15:07:22;8.90;27.30
728;DHT22;347;48.780;9.158;2022-12-07T15:09:49;8.80;27.20
728;DHT22;347;48.780;9.158;2022-12-07T15:12:17;8.70;27.50
728;DHT22;347;48.780;9.158;2022-12-07T15:14:43;8.70;27.70
728;DHT22;347;48.780;9.158;2022-12-07T15:17:11;8.70;27.50
728;DHT22;347;48.780;9.158;2022-12-07T15:19:40;8.60;27.90
728;DHT22;347;48.780;9.158;2022-12-07T15:22:07;8.60;27.70
728;DHT22;347;48.780;9.158;2022-12-07T15:24:39;8.60;27.90
728;DHT22;347;48.780;9.158;2022-12-07T15:27:07;8.60;27.60
728;DHT22;347;48.780;9.158;2022-12-07T15:29:33;8.70;27.50
728;DHT22;347;48.780;9.158;2022-12-07T15:32:01;8.70;27.70
728;DHT22;347;48.780;9.158;2022-12-07T15:34:30;8.60;27.10
728;DHT22;347;48.780;9.158;2022-12-07T15:37:02;8.60;27.30
728;DHT22;347;48.780;9.158;2022-12-07T15:39:28;8.60;27.30
728;DHT22;347;48.780;9.158;2022-12-07T15:41:54;8.60;27.50
728;DHT22;347;48.780;9.158;2022-12-07T15:44:24;8.50;27.50
728;DHT22;347;48.780;9.158;2022-12-07T15:47:11;8.60;27.60
728;DHT22;347;48.780;9.158;2022-12-07T15:49:39;8.50;27.50
728;DHT22;347;48.780;9.158;2022-12-07T15:52:10;8.40;28.00
728;DHT22;347;48.780;9.158;2022-12-07T15:54:36;8.40;28.10
728;DHT22;347;48.780;9.158;2022-12-07T15:57:02;7.90;28.90
728;DHT22;347;48.780;9.158;2022-12-07T15:59:29;7.40;30.30
728;DHT22;347;48.780;9.158;2022-12-07T16:02:01;7.20;31.10
728;DHT22;347;48.780;9.158;2022-12-07T16:04:32;7.00;31.70
728;DHT22;347;48.780;9.158;2022-12-07T16:07:00;6.70;32.60
728;DHT22;347;48.780;9.158;2022-12-07T16:09:29;6.70;33.60
728;DHT22;347;48.780;9.158;2022-12-07T16:12:02;6.80;33.20
728;DHT22;347;48.780;9.158;2022-12-07T16:14:34;6.80;32.70
728;DHT22;347;48.780;9.158;2022-12-07T16:17:09;6.90;33.40
728;DHT22;347;48.780;9.158;2022-12-07T16:19:52;6.90;32.50
728;DHT22;347;48.780;9.158;2022-12-07T16:22:21;6.90;33.20
728;DHT22;347;48.780;9.158;2022-12-07T16:24:59;7.00;31.90
728;DHT22;347;48.780;9.158;2022-12-07T16:27:33;7.10;32.10
728;DHT22;347;48.780;9.158;2022-12-07T16:30:08;6.90;32.10
728;DHT22;347;48.780;9.158;2022-12-07T16:32:50;7.00;32.10
728;DHT22;347;48.780;9.158;2022-12-07T16:38:48;7.50;29.80
728;DHT22;347;48.780;9.158;2022-12-07T16:41:14;7.70;29.40
728;DHT22;347;48.780;9.158;2022-12-07T16:43:40;7.60;30.10
728;DHT22;347;48.780;9.158;2022-12-07T16:46:08;7.80;29.70
728;DHT22;347;48.780;9.158;2022-12-07T16:48:40;7.90;28.40
728;DHT22;347;48.780;9.158;2022-12-07T16:51:11;7.70;29.10
728;DHT22;347;48.780;9.158;2022-12-07T16:53:39;7.50;29.60
728;DHT22;347;48.780;9.158;2022-12-07T16:56:15;7.50;29.20
728;DHT22;347;48.780;9.158;2022-12-07T16:58:49;7.50;29.30
728;DHT22;347;48.780;9.158;2022-12-07T17:01:31;7.40;29.90
728;DHT22;347;48.780;9.158;2022-12-07T17:03:57;7.50;29.50
728;DHT22;347;48.780;9.158;2022-12-07T17:06:42;7.60;29.00
728;DHT22;347;48.780;9.158;2022-12-07T17:09:08;7.30;29.40
728;DHT22;347;48.780;9.158;2022-12-07T17:11:38;7.10;30.40
728;DHT22;347;48.780;9.158;2022-12-07T17:14:09;6.80;30.40
728;DHT22;347;48.780;9.158;2022-12-07T17:16:57;6.50;31.60
728;DHT22;347;48.780;9.158;2022-12-07T17:19:28;6.30;32.00
728;DHT22;347;48.780;9.158;2022-12-07T17:21:54;6.30;32.40
728;DHT22;347;48.780;9.158;2022-12-07T17:24:30;6.40;32.50
728;DHT22;347;48.780;9.158;2022-12-07T17:26:58;6.30;32.50
728;DHT22;347;48.780;9.158;2022-12-07T17:29:40;6.20;33.10
728;DHT22;347;48.780;9.158;2022-12-07T17:32:08;6.00;33.40
728;DHT22;347;48.780;9.158;2022-12-07T17:34:36;6.00;34.00
728;DHT22;347;48.780;9.158;2022-12-07T17:37:07;5.80;34.30
728;DHT22;347;48.780;9.158;2022-12-07T17:39:36;5.90;34.50
728;DHT22;347;48.780;9.158;2022-12-07T17:42:04;6.00;34.40
728;DHT22;347;48.780;9.158;2022-12-07T17:44:49;5.90;34.70
728;DHT22;347;48.780;9.158;2022-12-07T17:47:15;6.00;34.80
728;DHT22;347;48.780;9.158;2022-12-07T17:49:50;6.10;34.10
728;DHT22;347;48.780;9.158;2022-12-07T17:52:21;6.20;34.10
728;DHT22;347;48.780;9.158;2022-12-07T17:55:08;6.20;33.80
728;DHT22;347;48.780;9.158;2022-12-07T18:00:18;6.00;34.60
728;DHT22;347;48.780;9.158;2022-12-07T18:02:44;5.80;35.10
728;DHT22;347;48.780;9.158;2022-12-07T18:05:10;5.90;35.30
728;DHT22;347;48.780;9.158;2022-12-07T18:07:36;5.80;35.30
728;DHT22;347;48.780;9.158;2022-12-07T18:10:06;5.90;35.20
728;DHT22;347;48.780;9.158;2022-12-07T18:12:33;5.90;34.50
728;DHT22;347;48.780;9.158;2022-12-07T18:15:05;6.00;34.80
728;DHT22;347;48.780;9.158;2022-12-07T18:17:33;5.90;34.70
728;DHT22;347;48.780;9.158;2022-12-07T18:20:03;5.70;35.30
728;DHT22;347;48.780;9.158;2022-12-07T18:22:32;5.70;35.60
728;DHT22;347;48.780;9.158;2022-12-07T18:25:01;5.80;35.60
728;DHT22;347;48.780;9.158;2022-12-07T18:27:30;5.90;35.40
728;DHT22;347;48.780;9.158;2022-12-07T18:30:00;6.00;34.70
728;DHT22;347;48.780;9.158;2022-12-07T18:32:31;6.20;34.70
728;DHT22;347;48.780;9.158;2022-12-07T18:34:56;6.40;33.90
728;DHT22;347;48.780;9.158;2022-12-07T18:37:25;6.50;33.70
728;DHT22;347;48.780;9.158;2022-12-07T18:39:56;6.60;33.10
728;DHT22;347;48.780;9.158;2022-12-07T18:42:29;6.90;32.80
728;DHT22;347;48.780;9.158;2022-12-07T18:44:58;7.00;31.70
728;DHT22;347;48.780;9.158;2022-12-07T18:47:30;7.10;31.40
728;DHT22;347;48.780;9.158;2022-12-07T18:49:55;7.30;31.60
728;DHT22;347;48.780;9.158;2022-12-07T18:52:27;7.10;31.20
728;DHT22;347;48.780;9.158;2022-12-07T18:55:04;6.90;31.80
728;DHT22;347;48.780;9.158;2022-12-07T18:57:36;6.80;32.70
728;DHT22;347;48.780;9.158;2022-12-07T19:00:09;6.80;32.50
728;DHT22;347;48.780;9.158;2022-12-07T19:02:38;7.00;32.10
728;DHT22;347;48.780;9.158;2022-12-07T19:05:08;6.90;31.60
728;DHT22;347;48.780;9.158;2022-12-07T19:07:37;6.60;32.40
728;DHT22;347;48.780;9.158;2022-12-07T19:10:05;6.60;32.80
728;DHT22;347;48.780;9.158;2022-12-07T19:12:35;6.60;33.20
728;DHT22;347;48.780;9.158;2022-12-07T19:15:01;6.60;32.90
728;DHT22;347;48.780;9.158;2022-12-07T19:17:27;6.40;33.30
728;DHT22;347;48.780;9.158;2022-12-07T19:19:53;6.20;34.10
728;DHT22;347;48.780;9.158;2022-12-07T19:22:21;6.20;34.00
728;DHT22;347;48.780;9.158;2022-12-07T19:24:49;6.30;34.10